sensor_id;sensor_type;location;lat;lon;timestamp;P1;durP1;ratioP1;P2;durP2;ratioP2
6479;SDS011;71753;48.772;9.148;2024-03-23T00:52:44;2.23;;;1.93;;
6479;SDS011;71753;48.772;9.148;2024-03-23T00:55:12;2.67;;;2.20;;
6479;SDS011;71753;48.772;9.148;2024-03-23T00:57:37;3.07;;;2.20;;
6479;SDS011;71753;48.772;9.148;2024-03-23T01:00:05;2.80;;;2.20;;
6479;SDS011;71753;48.772;9.148;2024-03-23T01:02:31;5.50;;;2.20;;
6479;SDS011;71753;48.772;9.148;2024-03-23T01:04:58;2.87;;;2.20;;
6479;SDS011;71753;48.772;9.148;2024-03-23T01:07:24;4.53;;;2.27;;
6479;SDS011;71753;48.772;9.148;2024-03-23T01:09:51;3.17;;;2.00;;
6479;SDS011;71753;48.772;9.148;2024-03-23T01:12:18;4.20;;;2.27;;
6479;SDS011;71753;48.772;9.148;2024-03-23T01:14:45;3.03;;;2.10;;
6479;SDS011;71753;48.772;9.148;2024-03-23T01:17:10;2.50;;;2.00;;
6479;SDS011;71753;48.772;9.148;2024-03-23T01:19:37;2.97;;;2.27;;
6479;SDS011;71753;48.772;9.148;2024-03-23T01:22:04;4.03;;;2.00;;
6479;SDS011;71753;48.772;9.148;2024-03-23T01:24:31;3.60;;;2.30;;
6479;SDS011;71753;48.772;9.148;2024-03-23T01:26:58;4.03;;;2.10;;
6479;SDS011;71753;48.772;9.148;2024-03-23T01:29:24;3.77;;;2.30;;
6479;SDS011;71753;48.772;9.148;2024-03-23T01:31:50;2.30;;;1.93;;
6479;SDS011;71753;48.772;9.148;2024-03-23T01:34:17;2.60;;;2.20;;
6479;SDS011;71753;48.772;9.148;2024-03-23T01:36:42;2.93;;;2.30;;
6479;SDS011;71753;48.772;9.148;2024-03-23T01:39:09;2.97;;;2.13;;
6479;SDS011;71753;48.772;9.148;2024-03-23T01:41:34;3.73;;;2.10;;
6479;SDS011;71753;48.772;9.148;2024-03-23T01:44:04;3.23;;;2.50;;
6479;SDS011;71753;48.772;9.148;2024-03-23T01:46:31;4.47;;;2.20;;
6479;SDS011;71753;48.772;9.148;2024-03-23T01:48:58;3.37;;;1.90;;
6479;SDS011;71753;48.772;9.148;2024-03-23T01:51:24;2.13;;;1.93;;
6479;SDS011;71753;48.772;9.148;2024-03-23T01:53:51;3.90;;;2.40;;
6479;SDS011;71753;48.772;9.148;2024-03-23T01:56:19;2.87;;;2.30;;
6479;SDS011;71753;48.772;9.148;2024-03-23T01:58:46;3.20;;;2.23;;
6479;SDS011;71753;48.772;9.148;2024-03-23T02:01:13;5.80;;;2.20;;
6479;SDS011;71753;48.772;9.148;2024-03-23T02:03:40;5.73;;;2.43;;
6479;SDS011;71753;48.772;9.148;2024-03-23T02:06:06;4.80;;;2.40;;
6479;SDS011;71753;48.772;9.148;2024-03-23T02:08:34;2.83;;;2.20;;
6479;SDS011;71753;48.772;9.148;2024-03-23T02:10:59;4.03;;;2.30;;
6479;SDS011;71753;48.772;9.148;2024-03-23T02:13:26;5.17;;;2.20;;
6479;SDS011;71753;48.772;9.148;2024-03-23T02:15:52;3.37;;;2.37;;
6479;SDS011;71753;48.772;9.148;2024-03-23T02:18:20;2.53;;;2.20;;
6479;SDS011;71753;48.772;9.148;2024-03-23T02:20:45;3.60;;;2.33;;
6479;SDS011;71753;48.772;9.148;2024-03-23T02:23:16;3.63;;;2.20;;
6479;SDS011;71753;48.772;9.148;2024-03-23T02:25:43;2.43;;;1.97;;
6479;SDS011;71753;48.772;9.148;2024-03-23T02:28:10;3.47;;;2.33;;
6479;SDS011;71753;48.772;9.148;2024-03-23T02:30:36;2.77;;;2.10;;
6479;SDS011;71753;48.772;9.148;2024-03-23T02:33:03;2.90;;;2.20;;
6479;SDS011;71753;48.772;9.148;2024-03-23T02:35:28;3.77;;;2.40;;
6479;SDS011;71753;48.772;9.148;2024-03-23T02:37:55;3.23;;;2.27;;
6479;SDS011;71753;48.772;9.148;2024-03-23T02:40:23;4.07;;;2.30;;
6479;SDS011;71753;48.772;9.148;2024-03-23T02:42:50;5.63;;;2.60;;
6479;SDS011;71753;48.772;9.148;2024-03-23T02:45:16;2.53;;;2.10;;
6479;SDS011;71753;48.772;9.148;2024-03-23T02:47:43;3.03;;;2.07;;
6479;SDS011;71753;48.772;9.148;2024-03-23T02:50:08;2.50;;;2.10;;
6479;SDS011;71753;48.772;9.148;2024-03-23T02:52:35;3.20;;;2.30;;
6479;SDS011;71753;48.772;9.148;2024-03-23T02:55:01;4.17;;;2.30;;
6479;SDS011;71753;48.772;9.148;2024-03-23T02:57:29;3.70;;;2.50;;
6479;SDS011;71753;48.772;9.148;2024-03-23T02:59:55;2.80;;;2.30;;
6479;SDS011;71753;48.772;9.148;2024-03-23T03:02:22;2.70;;;1.97;;
6479;SDS011;71753;48.772;9.148;2024-03-23T03:04:47;2.57;;;2.10;;
6479;SDS011;71753;48.772;9.148;2024-03-23T03:07:14;2.30;;;1.97;;
6479;SDS011;71753;48.772;9.148;2024-03-23T03:09:40;3.17;;;2.10;;
6479;SDS011;71753;48.772;9.148;2024-03-23T03:12:07;4.93;;;2.13;;
6479;SDS011;71753;48.772;9.148;2024-03-23T03:14:34;2.70;;;2.10;;
6479;SDS011;71753;48.772;9.148;2024-03-23T03:17:01;2.90;;;2.30;;
6479;SDS011;71753;48.772;9.148;2024-03-23T03:19:26;3.83;;;2.43;;
6479;SDS011;71753;48.772;9.148;2024-03-23T03:21:53;3.33;;;2.40;;
6479;SDS011;71753;48.772;9.148;2024-03-23T03:24:19;3.17;;;2.20;;
6479;SDS011;71753;48.772;9.148;2024-03-23T03:26:45;3.00;;;2.30;;
6479;SDS011;71753;48.772;9.148;2024-03-23T03:29:11;3.00;;;2.17;;
6479;SDS011;71753;48.772;9.148;2024-03-23T03:31:39;3.33;;;2.20;;
6479;SDS011;71753;48.772;9.148;2024-03-23T03:34:05;2.73;;;2.20;;
6479;SDS011;71753;48.772;9.148;2024-03-23T03:36:32;3.40;;;2.40;;
6479;SDS011;71753;48.772;9.148;2024-03-23T03:38:57;3.27;;;2.50;;
6479;SDS011;71753;48.772;9.148;2024-03-23T03:41:24;2.93;;;2.30;;
6479;SDS011;71753;48.772;9.148;2024-03-23T03:43:50;3.70;;;2.00;;
6479;SDS011;71753;48.772;9.148;2024-03-23T03:46:16;3.37;;;2.40;;
6479;SDS011;71753;48.772;9.148;2024-03-23T03:48:43;2.97;;;2.33;;
6479;SDS011;71753;48.772;9.148;2024-03-23T03:51:12;3.57;;;2.30;;
6479;SDS011;71753;48.772;9.148;2024-03-23T03:53:38;2.87;;;2.10;;
6479;SDS011;71753;48.772;9.148;2024-03-23T03:56:05;2.67;;;2.00;;
6479;SDS011;71753;48.772;9.148;2024-03-23T03:58:31;2.77;;;2.03;;
6479;SDS011;71753;48.772;9.148;2024-03-23T04:00:57;3.17;;;2.27;;
6479;SDS011;71753;48.772;9.148;2024-03-23T04:03:23;2.30;;;2.00;;
6479;SDS011;71753;48.772;9.148;2024-03-23T04:05:52;3.37;;;2.40;;
6479;SDS011;71753;48.772;9.148;2024-03-23T04:08:18;2.87;;;2.13;;
6479;SDS011;71753;48.772;9.148;2024-03-23T04:10:45;2.83;;;2.10;;
6479;SDS011;71753;48.772;9.148;2024-03-23T04:13:11;3.17;;;2.40;;
6479;SDS011;71753;48.772;9.148;2024-03-23T04:15:38;2.87;;;2.10;;
6479;SDS011;71753;48.772;9.148;2024-03-23T04:18:03;3.10;;;2.40;;
6479;SDS011;71753;48.772;9.148;2024-03-23T04:20:30;4.83;;;2.13;;
6479;SDS011;71753;48.772;9.148;2024-03-23T04:22:58;4.57;;;2.40;;
6479;SDS011;71753;48.772;9.148;2024-03-23T04:25:25;3.03;;;2.27;;
6479;SDS011;71753;48.772;9.148;2024-03-23T04:27:50;6.10;;;2.40;;
6479;SDS011;71753;48.772;9.148;2024-03-23T04:30:17;3.03;;;2.20;;
6479;SDS011;71753;48.772;9.148;2024-03-23T04:32:44;2.57;;;2.20;;
6479;SDS011;71753;48.772;9.148;2024-03-23T04:35:11;3.67;;;2.40;;
6479;SDS011;71753;48.772;9.148;2024-03-23T04:37:36;2.80;;;2.37;;
6479;SDS011;71753;48.772;9.148;2024-03-23T04:40:07;2.80;;;2.17;;
6479;SDS011;71753;48.772;9.148;2024-03-23T04:42:34;3.57;;;2.30;;
6479;SDS011;71753;48.772;9.148;2024-03-23T04:45:01;4.90;;;2.70;;
6479;SDS011;71753;48.772;9.148;2024-03-23T04:47:27;3.63;;;2.60;;
6479;SDS011;71753;48.772;9.148;2024-03-23T04:49:54;2.97;;;2.50;;
6479;SDS011;71753;48.772;9.148;2024-03-23T04:52:21;4.27;;;2.73;;
6479;SDS011;71753;48.772;9.148;2024-03-23T04:54:47;4.20;;;2.83;;
6479;SDS011;71753;48.772;9.148;2024-03-23T04:57:15;4.33;;;2.87;;
6479;SDS011;71753;48.772;9.148;2024-03-23T04:59:42;4.43;;;3.27;;
6479;SDS011;71753;48.772;9.148;2024-03-23T05:02:08;4.53;;;3.30;;
6479;SDS011;71753;48.772;9.148;2024-03-23T05:04:35;7.37;;;4.90;;
6479;SDS011;71753;48.772;9.148;2024-03-23T05:07:02;6.50;;;4.70;;
6479;SDS011;71753;48.772;9.148;2024-03-23T05:09:29;7.27;;;4.90;;
6479;SDS011;71753;48.772;9.148;2024-03-23T05:11:55;8.37;;;5.27;;
6479;SDS011;71753;48.772;9.148;2024-03-23T05:14:23;9.83;;;5.93;;
6479;SDS011;71753;48.772;9.148;2024-03-23T05:16:48;10.03;;;6.30;;
6479;SDS011;71753;48.772;9.148;2024-03-23T05:19:15;12.40;;;7.23;;
6479;SDS011;71753;48.772;9.148;2024-03-23T05:21:41;10.27;;;6.27;;
6479;SDS011;71753;48.772;9.148;2024-03-23T05:24:07;12.47;;;7.60;;
6479;SDS011;71753;48.772;9.148;2024-03-23T05:26:33;11.87;;;6.97;;
6479;SDS011;71753;48.772;9.148;2024-03-23T05:29:00;12.77;;;6.67;;
6479;SDS011;71753;48.772;9.148;2024-03-23T05:31:28;12.23;;;7.23;;
6479;SDS011;71753;48.772;9.148;2024-03-23T05:33:56;13.20;;;7.70;;
6479;SDS011;71753;48.772;9.148;2024-03-23T05:36:24;13.10;;;7.77;;
6479;SDS011;71753;48.772;9.148;2024-03-23T05:38:50;11.77;;;7.07;;
6479;SDS011;71753;48.772;9.148;2024-03-23T05:41:16;14.13;;;7.73;;
6479;SDS011;71753;48.772;9.148;2024-03-23T05:43:43;10.77;;;6.87;;
6479;SDS011;71753;48.772;9.148;2024-03-23T05:46:09;15.13;;;7.33;;
6479;SDS011;71753;48.772;9.148;2024-03-23T05:48:37;16.57;;;7.73;;
6479;SDS011;71753;48.772;9.148;2024-03-23T05:51:02;10.73;;;6.83;;
6479;SDS011;71753;48.772;9.148;2024-03-23T05:53:29;12.47;;;6.37;;
6479;SDS011;71753;48.772;9.148;2024-03-23T05:56:00;12.57;;;6.67;;
6479;SDS011;71753;48.772;9.148;2024-03-23T05:58:31;8.77;;;5.23;;
6479;SDS011;71753;48.772;9.148;2024-03-23T06:00:58;7.40;;;4.93;;
6479;SDS011;71753;48.772;9.148;2024-03-23T06:03:25;7.67;;;4.70;;
6479;SDS011;71753;48.772;9.148;2024-03-23T06:05:53;7.03;;;4.13;;
6479;SDS011;71753;48.772;9.148;2024-03-23T06:08:19;7.23;;;4.37;;
6479;SDS011;71753;48.772;9.148;2024-03-23T06:10:45;6.70;;;4.07;;
6479;SDS011;71753;48.772;9.148;2024-03-23T06:13:11;6.23;;;3.90;;
6479;SDS011;71753;48.772;9.148;2024-03-23T06:15:38;9.53;;;3.80;;
6479;SDS011;71753;48.772;9.148;2024-03-23T06:18:04;6.43;;;3.50;;
6479;SDS011;71753;48.772;9.148;2024-03-23T06:20:33;5.53;;;3.10;;
6479;SDS011;71753;48.772;9.148;2024-03-23T06:23:00;4.03;;;3.00;;
6479;SDS011;71753;48.772;9.148;2024-03-23T06:25:26;3.30;;;2.53;;
6479;SDS011;71753;48.772;9.148;2024-03-23T06:27:52;3.73;;;2.50;;
6479;SDS011;71753;48.772;9.148;2024-03-23T06:30:19;3.30;;;2.60;;
6479;SDS011;71753;48.772;9.148;2024-03-23T06:32:44;2.73;;;2.10;;
6479;SDS011;71753;48.772;9.148;2024-03-23T06:35:11;2.57;;;1.80;;
6479;SDS011;71753;48.772;9.148;2024-03-23T06:37:37;2.10;;;1.70;;
6479;SDS011;71753;48.772;9.148;2024-03-23T06:40:07;1.77;;;1.40;;
6479;SDS011;71753;48.772;9.148;2024-03-23T06:42:35;1.57;;;1.40;;
6479;SDS011;71753;48.772;9.148;2024-03-23T06:45:01;1.83;;;1.40;;
6479;SDS011;71753;48.772;9.148;2024-03-23T06:47:28;1.67;;;1.20;;
6479;SDS011;71753;48.772;9.148;2024-03-23T06:49:55;1.30;;;1.20;;
6479;SDS011;71753;48.772;9.148;2024-03-23T06:52:21;1.40;;;1.30;;
6479;SDS011;71753;48.772;9.148;2024-03-23T06:54:47;1.20;;;1.10;;
6479;SDS011;71753;48.772;9.148;2024-03-23T06:57:14;1.20;;;1.10;;
6479;SDS011;71753;48.772;9.148;2024-03-23T06:59:41;1.00;;;1.00;;
6479;SDS011;71753;48.772;9.148;2024-03-23T07:02:07;1.30;;;1.10;;
6479;SDS011;71753;48.772;9.148;2024-03-23T07:04:34;1.00;;;1.00;;
6479;SDS011;71753;48.772;9.148;2024-03-23T07:06:59;1.43;;;1.20;;
6479;SDS011;71753;48.772;9.148;2024-03-23T07:09:27;1.00;;;1.00;;
6479;SDS011;71753;48.772;9.148;2024-03-23T07:11:53;1.37;;;0.90;;
6479;SDS011;71753;48.772;9.148;2024-03-23T07:14:21;1.20;;;1.00;;
6479;SDS011;71753;48.772;9.148;2024-03-23T07:16:47;1.00;;;1.00;;
6479;SDS011;71753;48.772;9.148;2024-03-23T07:19:14;1.00;;;0.90;;
6479;SDS011;71753;48.772;9.148;2024-03-23T07:21:41;0.93;;;0.93;;
6479;SDS011;71753;48.772;9.148;2024-03-23T07:24:08;1.07;;;1.00;;
6479;SDS011;71753;48.772;9.148;2024-03-23T07:26:34;1.00;;;1.00;;
6479;SDS011;71753;48.772;9.148;2024-03-23T07:29:00;0.90;;;0.90;;
6479;SDS011;71753;48.772;9.148;2024-03-23T07:31:28;0.90;;;0.90;;
6479;SDS011;71753;48.772;9.148;2024-03-23T07:33:55;1.40;;;1.00;;
6479;SDS011;71753;48.772;9.148;2024-03-23T07:36:20;1.00;;;1.00;;
6479;SDS011;71753;48.772;9.148;2024-03-23T07:38:47;1.10;;;1.00;;
6479;SDS011;71753;48.772;9.148;2024-03-23T07:41:14;1.20;;;1.10;;
6479;SDS011;71753;48.772;9.148;2024-03-23T07:43:42;0.90;;;0.90;;
6479;SDS011;71753;48.772;9.148;2024-03-23T07:46:08;0.90;;;0.90;;
6479;SDS011;71753;48.772;9.148;2024-03-23T07:48:36;0.90;;;0.90;;
6479;SDS011;71753;48.772;9.148;2024-03-23T07:51:02;1.00;;;1.00;;
6479;SDS011;71753;48.772;9.148;2024-03-23T07:53:30;1.00;;;1.00;;
6479;SDS011;71753;48.772;9.148;2024-03-23T07:55:56;1.20;;;1.10;;
6479;SDS011;71753;48.772;9.148;2024-03-23T07:58:27;1.00;;;1.00;;
6479;SDS011;71753;48.772;9.148;2024-03-23T08:00:53;1.00;;;1.00;;
6479;SDS011;71753;48.772;9.148;2024-03-23T08:03:20;1.20;;;1.10;;
6479;SDS011;71753;48.772;9.148;2024-03-23T08:05:47;1.27;;;1.00;;
6479;SDS011;71753;48.772;9.148;2024-03-23T08:08:14;1.30;;;1.20;;
6479;SDS011;71753;48.772;9.148;2024-03-23T08:10:49;1.30;;;1.20;;
6479;SDS011;71753;48.772;9.148;2024-03-23T08:13:16;1.43;;;1.30;;
6479;SDS011;71753;48.772;9.148;2024-03-23T08:15:42;1.27;;;1.17;;
6479;SDS011;71753;48.772;9.148;2024-03-23T08:18:12;1.50;;;1.40;;
6479;SDS011;71753;48.772;9.148;2024-03-23T08:20:38;1.83;;;1.30;;
6479;SDS011;71753;48.772;9.148;2024-03-23T08:23:06;1.30;;;1.20;;
6479;SDS011;71753;48.772;9.148;2024-03-23T08:25:32;1.40;;;1.30;;
6479;SDS011;71753;48.772;9.148;2024-03-23T08:27:59;1.97;;;1.60;;
6479;SDS011;71753;48.772;9.148;2024-03-23T08:30:24;1.87;;;1.50;;
6479;SDS011;71753;48.772;9.148;2024-03-23T08:32:51;1.60;;;1.40;;
6479;SDS011;71753;48.772;9.148;2024-03-23T08:35:17;1.97;;;1.50;;
6479;SDS011;71753;48.772;9.148;2024-03-23T08:37:45;1.63;;;1.20;;
6479;SDS011;71753;48.772;9.148;2024-03-23T08:40:12;1.60;;;1.40;;
6479;SDS011;71753;48.772;9.148;2024-03-23T08:42:39;1.57;;;1.47;;
6479;SDS011;71753;48.772;9.148;2024-03-23T08:45:04;1.67;;;1.53;;
6479;SDS011;71753;48.772;9.148;2024-03-23T08:47:33;2.33;;;1.70;;
6479;SDS011;71753;48.772;9.148;2024-03-23T08:50:00;2.00;;;1.80;;
6479;SDS011;71753;48.772;9.148;2024-03-23T08:52:26;2.00;;;1.57;;
6479;SDS011;71753;48.772;9.148;2024-03-23T08:54:53;2.00;;;1.37;;
6479;SDS011;71753;48.772;9.148;2024-03-23T08:57:22;1.63;;;1.40;;
6479;SDS011;71753;48.772;9.148;2024-03-23T08:59:48;1.73;;;1.50;;
6479;SDS011;71753;48.772;9.148;2024-03-23T09:02:14;1.77;;;1.40;;
6479;SDS011;71753;48.772;9.148;2024-03-23T09:04:40;1.63;;;1.50;;
6479;SDS011;71753;48.772;9.148;2024-03-23T09:07:07;1.57;;;1.47;;
6479;SDS011;71753;48.772;9.148;2024-03-23T09:09:33;1.63;;;1.47;;
6479;SDS011;71753;48.772;9.148;2024-03-23T09:12:00;2.20;;;1.60;;
6479;SDS011;71753;48.772;9.148;2024-03-23T09:14:27;1.70;;;1.50;;
6479;SDS011;71753;48.772;9.148;2024-03-23T09:16:54;2.10;;;1.70;;
6479;SDS011;71753;48.772;9.148;2024-03-23T09:19:20;3.53;;;1.77;;
6479;SDS011;71753;48.772;9.148;2024-03-23T09:21:47;2.70;;;1.87;;
6479;SDS011;71753;48.772;9.148;2024-03-23T09:24:14;3.73;;;1.90;;
6479;SDS011;71753;48.772;9.148;2024-03-23T09:26:40;2.60;;;2.10;;
6479;SDS011;71753;48.772;9.148;2024-03-23T09:29:06;3.10;;;2.20;;
6479;SDS011;71753;48.772;9.148;2024-03-23T09:31:34;3.97;;;2.07;;
6479;SDS011;71753;48.772;9.148;2024-03-23T09:34:00;4.53;;;2.10;;
6479;SDS011;71753;48.772;9.148;2024-03-23T09:36:26;4.43;;;2.60;;
6479;SDS011;71753;48.772;9.148;2024-03-23T09:38:52;4.27;;;2.17;;
6479;SDS011;71753;48.772;9.148;2024-03-23T09:41:19;5.10;;;2.27;;
6479;SDS011;71753;48.772;9.148;2024-03-23T09:43:45;4.57;;;2.20;;
6479;SDS011;71753;48.772;9.148;2024-03-23T09:46:13;3.47;;;1.77;;
6479;SDS011;71753;48.772;9.148;2024-03-23T09:48:40;2.77;;;1.70;;
6479;SDS011;71753;48.772;9.148;2024-03-23T09:51:11;3.40;;;2.23;;
6479;SDS011;71753;48.772;9.148;2024-03-23T09:53:37;3.67;;;2.07;;
6479;SDS011;71753;48.772;9.148;2024-03-23T09:56:04;2.60;;;2.00;;
6479;SDS011;71753;48.772;9.148;2024-03-23T09:58:30;6.17;;;2.40;;
6479;SDS011;71753;48.772;9.148;2024-03-23T10:00:57;3.00;;;2.23;;
6479;SDS011;71753;48.772;9.148;2024-03-23T10:03:23;6.10;;;2.57;;
6479;SDS011;71753;48.772;9.148;2024-03-23T10:06:00;4.73;;;2.83;;
6479;SDS011;71753;48.772;9.148;2024-03-23T10:08:26;3.17;;;2.27;;
6479;SDS011;71753;48.772;9.148;2024-03-23T10:10:55;5.17;;;2.47;;
6479;SDS011;71753;48.772;9.148;2024-03-23T10:13:24;3.60;;;2.43;;
6479;SDS011;71753;48.772;9.148;2024-03-23T10:15:54;3.93;;;2.13;;
6479;SDS011;71753;48.772;9.148;2024-03-23T10:18:22;5.33;;;2.70;;
6479;SDS011;71753;48.772;9.148;2024-03-23T10:20:50;6.97;;;2.57;;
6479;SDS011;71753;48.772;9.148;2024-03-23T10:23:18;2.17;;;1.90;;
6479;SDS011;71753;48.772;9.148;2024-03-23T10:25:45;3.23;;;2.27;;
6479;SDS011;71753;48.772;9.148;2024-03-23T10:28:11;3.70;;;2.63;;
6479;SDS011;71753;48.772;9.148;2024-03-23T10:30:38;2.90;;;2.10;;
6479;SDS011;71753;48.772;9.148;2024-03-23T10:33:07;2.50;;;2.10;;
6479;SDS011;71753;48.772;9.148;2024-03-23T10:35:34;6.53;;;2.40;;
6479;SDS011;71753;48.772;9.148;2024-03-23T10:38:02;3.93;;;2.20;;
6479;SDS011;71753;48.772;9.148;2024-03-23T10:40:32;4.27;;;2.30;;
6479;SDS011;71753;48.772;9.148;2024-03-23T10:43:00;4.50;;;2.00;;
6479;SDS011;71753;48.772;9.148;2024-03-23T10:45:29;2.70;;;2.20;;
6479;SDS011;71753;48.772;9.148;2024-03-23T10:47:55;4.17;;;2.70;;
6479;SDS011;71753;48.772;9.148;2024-03-23T10:50:21;5.17;;;2.50;;
6479;SDS011;71753;48.772;9.148;2024-03-23T10:52:49;4.33;;;2.30;;
6479;SDS011;71753;48.772;9.148;2024-03-23T10:55:15;3.97;;;2.50;;
6479;SDS011;71753;48.772;9.148;2024-03-23T10:57:48;4.07;;;2.40;;
6479;SDS011;71753;48.772;9.148;2024-03-23T11:00:16;7.93;;;2.53;;
6479;SDS011;71753;48.772;9.148;2024-03-23T11:02:44;3.60;;;2.40;;
6479;SDS011;71753;48.772;9.148;2024-03-23T11:05:28;2.60;;;1.83;;
6479;SDS011;71753;48.772;9.148;2024-03-23T11:07:56;3.83;;;2.00;;
6479;SDS011;71753;48.772;9.148;2024-03-23T11:10:25;2.30;;;1.93;;
6479;SDS011;71753;48.772;9.148;2024-03-23T11:12:55;3.10;;;1.97;;
6479;SDS011;71753;48.772;9.148;2024-03-23T11:15:23;7.57;;;2.60;;
6479;SDS011;71753;48.772;9.148;2024-03-23T11:20:37;2.70;;;2.00;;
6479;SDS011;71753;48.772;9.148;2024-03-23T11:23:04;3.30;;;2.23;;
6479;SDS011;71753;48.772;9.148;2024-03-23T11:25:29;3.97;;;2.40;;
6479;SDS011;71753;48.772;9.148;2024-03-23T11:28:08;3.40;;;2.20;;
6479;SDS011;71753;48.772;9.148;2024-03-23T11:30:36;3.90;;;2.30;;
6479;SDS011;71753;48.772;9.148;2024-03-23T11:33:03;4.37;;;2.50;;
6479;SDS011;71753;48.772;9.148;2024-03-23T11:35:30;3.70;;;2.37;;
6479;SDS011;71753;48.772;9.148;2024-03-23T11:38:01;3.87;;;2.00;;
6479;SDS011;71753;48.772;9.148;2024-03-23T11:40:30;3.53;;;2.10;;
6479;SDS011;71753;48.772;9.148;2024-03-23T11:42:59;2.40;;;1.90;;
6479;SDS011;71753;48.772;9.148;2024-03-23T11:45:25;2.30;;;1.93;;
6479;SDS011;71753;48.772;9.148;2024-03-23T11:48:05;4.33;;;1.73;;
6479;SDS011;71753;48.772;9.148;2024-03-23T11:50:33;2.83;;;1.70;;
6479;SDS011;71753;48.772;9.148;2024-03-23T11:53:08;2.47;;;1.80;;
6479;SDS011;71753;48.772;9.148;2024-03-23T11:55:45;3.63;;;1.40;;
6479;SDS011;71753;48.772;9.148;2024-03-23T11:58:13;4.23;;;2.17;;
6479;SDS011;71753;48.772;9.148;2024-03-23T12:00:41;2.80;;;1.60;;
6479;SDS011;71753;48.772;9.148;2024-03-23T12:03:07;2.87;;;1.50;;
6479;SDS011;71753;48.772;9.148;2024-03-23T12:05:35;5.23;;;1.57;;
6479;SDS011;71753;48.772;9.148;2024-03-23T12:08:22;2.93;;;1.50;;
6479;SDS011;71753;48.772;9.148;2024-03-23T12:10:50;2.80;;;1.30;;
6479;SDS011;71753;48.772;9.148;2024-03-23T12:13:19;3.87;;;1.33;;
6479;SDS011;71753;48.772;9.148;2024-03-23T12:15:47;2.50;;;1.30;;
6479;SDS011;71753;48.772;9.148;2024-03-23T12:18:14;2.63;;;1.50;;
6479;SDS011;71753;48.772;9.148;2024-03-23T12:20:41;1.70;;;1.40;;
6479;SDS011;71753;48.772;9.148;2024-03-23T12:23:10;2.87;;;1.40;;
6479;SDS011;71753;48.772;9.148;2024-03-23T12:25:38;3.90;;;1.53;;
6479;SDS011;71753;48.772;9.148;2024-03-23T12:28:04;4.07;;;1.40;;
6479;SDS011;71753;48.772;9.148;2024-03-23T12:30:37;4.63;;;1.63;;
6479;SDS011;71753;48.772;9.148;2024-03-23T12:33:05;4.67;;;1.97;;
6479;SDS011;71753;48.772;9.148;2024-03-23T12:35:31;6.50;;;1.90;;
6479;SDS011;71753;48.772;9.148;2024-03-23T12:37:57;2.13;;;1.40;;
6479;SDS011;71753;48.772;9.148;2024-03-23T12:40:24;3.50;;;1.60;;
6479;SDS011;71753;48.772;9.148;2024-03-23T12:42:49;2.60;;;1.60;;
6479;SDS011;71753;48.772;9.148;2024-03-23T12:45:16;3.30;;;1.90;;
6479;SDS011;71753;48.772;9.148;2024-03-23T12:47:43;3.90;;;1.63;;
6479;SDS011;71753;48.772;9.148;2024-03-23T12:50:10;2.80;;;1.70;;
6479;SDS011;71753;48.772;9.148;2024-03-23T12:52:36;4.87;;;1.90;;
6479;SDS011;71753;48.772;9.148;2024-03-23T12:55:03;2.70;;;1.80;;
6479;SDS011;71753;48.772;9.148;2024-03-23T12:57:30;3.50;;;1.90;;
6479;SDS011;71753;48.772;9.148;2024-03-23T12:59:58;3.93;;;1.57;;
6479;SDS011;71753;48.772;9.148;2024-03-23T13:02:24;3.63;;;1.80;;
6479;SDS011;71753;48.772;9.148;2024-03-23T13:04:52;3.03;;;1.60;;
6479;SDS011;71753;48.772;9.148;2024-03-23T13:07:19;3.00;;;1.53;;
6479;SDS011;71753;48.772;9.148;2024-03-23T13:09:46;3.90;;;1.90;;
6479;SDS011;71753;48.772;9.148;2024-03-23T13:12:14;3.00;;;1.70;;
6479;SDS011;71753;48.772;9.148;2024-03-23T13:14:42;2.93;;;1.67;;
6479;SDS011;71753;48.772;9.148;2024-03-23T13:17:07;2.07;;;1.60;;
6479;SDS011;71753;48.772;9.148;2024-03-23T13:19:34;3.23;;;1.83;;
6479;SDS011;71753;48.772;9.148;2024-03-23T13:22:01;3.07;;;1.80;;
6479;SDS011;71753;48.772;9.148;2024-03-23T13:24:28;2.43;;;1.70;;
6479;SDS011;71753;48.772;9.148;2024-03-23T13:26:55;3.67;;;1.97;;
6479;SDS011;71753;48.772;9.148;2024-03-23T13:29:22;1.87;;;1.57;;
6479;SDS011;71753;48.772;9.148;2024-03-23T13:31:49;3.80;;;1.90;;
6479;SDS011;71753;48.772;9.148;2024-03-23T13:34:16;2.77;;;1.70;;
6479;SDS011;71753;48.772;9.148;2024-03-23T13:36:43;4.17;;;1.40;;
6479;SDS011;71753;48.772;9.148;2024-03-23T13:39:11;3.27;;;1.43;;
6479;SDS011;71753;48.772;9.148;2024-03-23T13:41:38;2.50;;;1.57;;
6479;SDS011;71753;48.772;9.148;2024-03-23T13:44:05;2.13;;;1.50;;
6479;SDS011;71753;48.772;9.148;2024-03-23T13:46:31;2.47;;;1.60;;
6479;SDS011;71753;48.772;9.148;2024-03-23T13:48:58;1.60;;;1.50;;
6479;SDS011;71753;48.772;9.148;2024-03-23T13:51:24;1.90;;;1.50;;
6479;SDS011;71753;48.772;9.148;2024-03-23T13:53:52;2.03;;;1.47;;
6479;SDS011;71753;48.772;9.148;2024-03-23T13:56:19;4.17;;;1.67;;
6479;SDS011;71753;48.772;9.148;2024-03-23T13:58:46;1.97;;;1.20;;
6479;SDS011;71753;48.772;9.148;2024-03-23T14:01:12;4.20;;;1.50;;
6479;SDS011;71753;48.772;9.148;2024-03-23T14:03:40;1.67;;;1.40;;
6479;SDS011;71753;48.772;9.148;2024-03-23T14:06:06;2.73;;;1.60;;
6479;SDS011;71753;48.772;9.148;2024-03-23T14:08:33;2.53;;;1.50;;
6479;SDS011;71753;48.772;9.148;2024-03-23T14:11:00;1.50;;;1.40;;
6479;SDS011;71753;48.772;9.148;2024-03-23T14:13:29;2.43;;;1.43;;
6479;SDS011;71753;48.772;9.148;2024-03-23T14:15:55;2.53;;;1.70;;
6479;SDS011;71753;48.772;9.148;2024-03-23T14:18:22;2.43;;;1.53;;
6479;SDS011;71753;48.772;9.148;2024-03-23T14:20:47;3.87;;;1.70;;
6479;SDS011;71753;48.772;9.148;2024-03-23T14:23:14;1.73;;;1.30;;
6479;SDS011;71753;48.772;9.148;2024-03-23T14:25:40;1.40;;;1.30;;
6479;SDS011;71753;48.772;9.148;2024-03-23T14:28:06;1.67;;;1.33;;
6479;SDS011;71753;48.772;9.148;2024-03-23T14:30:40;1.40;;;1.30;;
6479;SDS011;71753;48.772;9.148;2024-03-23T14:33:08;1.63;;;1.50;;
6479;SDS011;71753;48.772;9.148;2024-03-23T14:35:34;3.47;;;1.40;;
6479;SDS011;71753;48.772;9.148;2024-03-23T14:38:01;1.40;;;1.30;;
6479;SDS011;71753;48.772;9.148;2024-03-23T14:40:27;1.33;;;1.23;;
6479;SDS011;71753;48.772;9.148;2024-03-23T14:42:54;1.70;;;1.60;;
6479;SDS011;71753;48.772;9.148;2024-03-23T14:45:20;2.50;;;1.60;;
6479;SDS011;71753;48.772;9.148;2024-03-23T14:47:48;2.13;;;1.50;;
6479;SDS011;71753;48.772;9.148;2024-03-23T14:50:14;2.77;;;1.40;;
6479;SDS011;71753;48.772;9.148;2024-03-23T14:52:41;2.83;;;1.50;;
6479;SDS011;71753;48.772;9.148;2024-03-23T14:55:09;1.97;;;1.40;;
6479;SDS011;71753;48.772;9.148;2024-03-23T14:57:36;1.97;;;1.40;;
6479;SDS011;71753;48.772;9.148;2024-03-23T15:00:04;1.40;;;1.30;;
6479;SDS011;71753;48.772;9.148;2024-03-23T15:02:33;1.50;;;1.30;;
6479;SDS011;71753;48.772;9.148;2024-03-23T15:05:00;1.50;;;1.40;;
6479;SDS011;71753;48.772;9.148;2024-03-23T15:07:28;2.10;;;1.47;;
6479;SDS011;71753;48.772;9.148;2024-03-23T15:09:54;1.40;;;1.30;;
6479;SDS011;71753;48.772;9.148;2024-03-23T15:12:21;1.20;;;1.10;;
6479;SDS011;71753;48.772;9.148;2024-03-23T15:14:46;2.07;;;1.30;;
6479;SDS011;71753;48.772;9.148;2024-03-23T15:17:13;1.20;;;1.10;;
6479;SDS011;71753;48.772;9.148;2024-03-23T15:19:39;3.13;;;1.20;;
6479;SDS011;71753;48.772;9.148;2024-03-23T15:22:08;1.53;;;1.07;;
6479;SDS011;71753;48.772;9.148;2024-03-23T15:24:35;1.97;;;1.30;;
6479;SDS011;71753;48.772;9.148;2024-03-23T15:27:02;1.20;;;1.10;;
6479;SDS011;71753;48.772;9.148;2024-03-23T15:29:28;1.10;;;1.00;;
6479;SDS011;71753;48.772;9.148;2024-03-23T15:31:54;1.70;;;1.30;;
6479;SDS011;71753;48.772;9.148;2024-03-23T15:34:20;1.23;;;1.00;;
6479;SDS011;71753;48.772;9.148;2024-03-23T15:36:47;1.93;;;1.17;;
6479;SDS011;71753;48.772;9.148;2024-03-23T15:39:15;1.17;;;1.10;;
6479;SDS011;71753;48.772;9.148;2024-03-23T15:41:43;1.33;;;1.10;;
6479;SDS011;71753;48.772;9.148;2024-03-23T15:44:10;3.23;;;1.10;;
6479;SDS011;71753;48.772;9.148;2024-03-23T15:46:36;2.17;;;1.10;;
6479;SDS011;71753;48.772;9.148;2024-03-23T15:49:02;2.43;;;1.30;;
6479;SDS011;71753;48.772;9.148;2024-03-23T15:51:30;1.30;;;1.20;;
6479;SDS011;71753;48.772;9.148;2024-03-23T15:53:58;1.77;;;1.27;;